KRYY/RYY METAR and TAF weather

Enter ICAO airport designator
Station Type Date Time Source
KRYY METAR 2019/07/17 19:02 UTC NOAA

KRYY 171902Z VRB05KT 5SM VCTS RA BKN037 BKN044 BKN100 27/23 A3013 RMK AO2 LTG DSNT ALQDS TSB1852E00B02RAB1854 P0003 $


Station Type Date Time Source
KRYY Decoded METAR 2019/07/17 19:02 UTC NOAA

Marietta, Cobb County-McCollum Field Airport, GA, United States (KRYY) 34-00-47N 084-35-55W
Jul 17, 2019 - 03:02 PM EDT / 2019.07.17 1902 UTC
Wind: Variable at 6 MPH (5 KT):0
Visibility: 5 mile(s):0
Sky conditions: mostly cloudy
Weather: thunder in the vicinity; rain; Lightning observed
Precipitation last hour: 0.03 inches
Temperature: 80 F (27 C)
Dew Point: 73 F (23 C)
Relative Humidity: 78%
Pressure (altimeter): 30.13 in. Hg (1020 hPa)
ob: KRYY 171902Z VRB05KT 5SM VCTS RA BKN037 BKN044 BKN100 27/23 A3013 RMK AO2 LTG DSNT ALQDS TSB1852E00B02RAB1854 P0003
cycle: 19

Station Type Date Time Source
KRYY TAF 2019/07/17 18:30 UTC NOAA

TAF KRYY 171728Z 1718/1818 25010G15KT P6SM VCSH BKN040
TEMPO 1718/1722 4SM TSRA BKN035CB
FM180100 25004KT P6SM BKN050
FM180500 VRB03KT P6SM SCT050 BKN250
FM181500 29007KT P6SM BKN035

Example: see airport list